Time;durP1;ratioP1;P1;durP2;ratioP2;P2;SDS_P1;SDS_P2;PMS_P1;PMS_P2;Temp;Humidity;BMP_temperature;BMP_pressure;BME280_temperature;BME280_humidity;BME280_pressure;Samples;Min_cycle;Max_cycle;Signal;HPM_P1;HPM_P2
2022/07/21 00:00:23;;;;;;;3.92;2.60;;;;;;;15.60;86.25;100444.77;1822094;78;20876;-87
2022/07/21 00:02:50;;;;;;;3.33;2.45;;;;;;;15.60;86.49;100454.52;1822207;78;20880;-87
2022/07/21 00:05:17;;;;;;;3.45;2.87;;;;;;;15.59;86.60;100452.86;1822212;78;20880;-87
2022/07/21 00:07:44;;;;;;;3.75;2.83;;;;;;;15.57;86.55;100450.33;1822040;78;21098;-86
2022/07/21 00:10:13;;;;;;;5.65;2.67;;;;;;;15.59;87.04;100451.53;1822083;78;20856;-87
2022/07/21 00:12:39;;;;;;;3.47;2.92;;;;;;;15.60;86.66;100450.55;1822071;78;20876;-86
2022/07/21 00:15:07;;;;;;;5.03;3.35;;;;;;;15.58;86.59;100448.03;1822177;78;20924;-88
2022/07/21 00:17:35;;;;;;;3.00;2.70;;;;;;;15.55;86.39;100449.12;1822237;78;20832;-86
2022/07/21 00:20:04;;;;;;;5.53;3.02;;;;;;;15.53;86.62;100447.09;1805201;78;21807;-88
2022/07/21 00:22:31;;;;;;;3.60;2.65;;;;;;;15.50;86.53;100448.69;1789692;79;20848;-88
2022/07/21 00:24:58;;;;;;;4.55;2.72;;;;;;;15.49;86.50;100444.84;1789626;80;20864;-88
2022/07/21 00:27:25;;;;;;;3.52;3.20;;;;;;;15.46;86.39;100441.97;1789863;79;21445;-88
2022/07/21 00:29:52;;;;;;;3.70;2.60;;;;;;;15.46;86.50;100443.78;1789728;79;20879;-86
2022/07/21 00:32:19;;;;;;;3.25;2.00;;;;;;;15.45;86.59;100444.73;1789861;80;21228;-87
2022/07/21 00:34:46;;;;;;;2.35;2.15;;;;;;;15.44;86.25;100445.22;1789732;80;20880;-87
2022/07/21 00:37:13;;;;;;;2.80;2.60;;;;;;;15.42;86.26;100441.03;1789767;79;21464;-86
2022/07/21 00:39:40;;;;;;;3.12;2.83;;;;;;;15.41;86.22;100442.02;1789808;80;20926;-87
2022/07/21 00:42:07;;;;;;;3.15;2.85;;;;;;;15.40;85.80;100432.39;1789926;80;20883;-87
2022/07/21 00:44:34;;;;;;;4.00;3.15;;;;;;;15.37;85.55;100432.66;1789922;79;21831;-87
2022/07/21 00:47:01;;;;;;;4.97;2.80;;;;;;;15.33;85.46;100439.50;1792627;79;20853;-87
2022/07/21 00:49:28;;;;;;;5.15;3.02;;;;;;;15.31;85.53;100432.19;1791964;79;20840;-86
2022/07/21 00:51:56;;;;;;;2.98;2.55;;;;;;;15.31;85.54;100433.51;1790510;80;20895;-88
2022/07/21 00:54:22;;;;;;;3.22;2.22;;;;;;;15.31;85.51;100431.36;1789936;79;20962;-88
2022/07/21 00:56:49;;;;;;;3.55;2.83;;;;;;;15.29;85.31;100435.44;1795088;79;21346;-89
2022/07/21 00:59:16;;;;;;;4.22;2.42;;;;;;;15.25;85.33;100435.36;1795411;79;20954;-87
2022/07/21 01:01:43;;;;;;;7.42;2.95;;;;;;;15.23;85.34;100432.46;1795743;79;21452;-87
2022/07/21 01:04:10;;;;;;;6.08;2.45;;;;;;;15.20;85.44;100430.91;1795234;79;20978;-89
2022/07/21 01:06:39;;;;;;;3.52;2.45;;;;;;;15.18;85.42;100433.33;1795339;80;21436;-88
2022/07/21 01:09:06;;;;;;;3.98;3.20;;;;;;;15.16;85.39;100432.12;1795339;80;21271;-88
2022/07/21 01:11:33;;;;;;;4.40;2.45;;;;;;;15.13;85.31;100437.19;1795344;80;20911;-87
2022/07/21 01:14:00;;;;;;;6.30;1.92;;;;;;;15.07;85.25;100428.92;1795282;80;20817;-88
2022/07/21 01:16:26;;;;;;;5.55;2.47;;;;;;;15.04;85.31;100423.42;1795438;79;20940;-88
2022/07/21 01:18:54;;;;;;;2.70;2.17;;;;;;;15.03;85.54;100424.39;1795452;79;21433;-88
2022/07/21 01:21:31;;;;;;;7.78;3.75;;;;;;;15.01;85.28;100429.45;1795431;80;21456;-89
2022/07/21 01:23:58;;;;;;;3.60;2.42;;;;;;;14.99;85.45;100430.89;1795043;80;21446;-87
2022/07/21 01:26:25;;;;;;;5.65;2.87;;;;;;;14.98;85.51;100435.80;1795459;79;20958;-89
2022/07/21 01:28:52;;;;;;;2.98;2.47;;;;;;;14.96;85.43;100429.80;1795623;79;20900;-88
2022/07/21 01:31:20;;;;;;;3.37;2.98;;;;;;;14.96;85.55;100425.84;1795478;79;20876;-89
2022/07/21 01:33:46;;;;;;;5.95;2.90;;;;;;;14.96;85.43;100434.25;1795562;79;21237;-90
2022/07/21 01:36:15;;;;;;;4.12;2.70;;;;;;;14.93;85.21;100424.30;1795186;79;20895;-87
2022/07/21 01:41:29;;;;;;;4.40;2.50;;;;;;;14.89;85.13;100422.03;1795482;79;20896;-88
2022/07/21 01:44:02;;;;;;;3.47;2.42;;;;;;;14.85;85.31;100424.55;1795395;80;20986;-88
2022/07/21 01:46:31;;;;;;;4.70;2.58;;;;;;;14.80;85.21;100427.57;1795558;80;21185;-90
2022/07/21 01:48:58;;;;;;;4.53;2.02;;;;;;;14.81;85.27;100426.63;1795356;79;20848;-89
2022/07/21 01:51:25;;;;;;;4.72;2.70;;;;;;;14.79;85.31;100430.36;1795293;79;20919;-88
2022/07/21 01:53:52;;;;;;;3.83;3.10;;;;;;;14.78;85.39;100426.02;1795407;79;21325;-88
2022/07/21 01:56:21;;;;;;;5.67;2.37;;;;;;;14.76;85.28;100420.86;1773312;80;21372;-88
2022/07/21 01:58:49;;;;;;;5.10;3.40;;;;;;;14.76;85.28;100420.86;1760795;81;21259;-89
2022/07/21 02:01:18;;;;;;;4.03;2.65;;;;;;;14.76;85.16;100418.22;1760732;81;20989;-88
2022/07/21 02:03:45;;;;;;;3.08;2.05;;;;;;;14.75;84.96;100421.00;1760536;81;20922;-87
2022/07/21 02:06:12;;;;;;;3.92;2.60;;;;;;;14.72;84.95;100422.09;1760713;80;21353;-87
2022/07/21 02:08:42;;;;;;;4.70;2.58;;;;;;;14.71;85.02;100426.51;1760862;81;21329;-87
2022/07/21 02:11:08;;;;;;;7.20;2.22;;;;;;;14.70;85.22;100420.05;1760782;81;21140;-87
2022/07/21 02:13:36;;;;;;;4.42;2.58;;;;;;;14.70;85.31;100419.56;1760501;81;20954;-87
2022/07/21 02:16:03;;;;;;;3.42;2.47;;;;;;;14.70;85.31;100419.56;1760701;81;20891;-88
2022/07/21 02:18:30;;;;;;;8.13;2.62;;;;;;;14.69;85.12;100421.00;1760687;81;21320;-88
2022/07/21 02:20:57;;;;;;;5.22;2.50;;;;;;;14.69;85.45;100421.00;1760905;81;20926;-88
2022/07/21 02:23:24;;;;;;;6.90;2.83;;;;;;;14.68;85.27;100426.77;1760641;81;21136;-88
2022/07/21 02:25:52;;;;;;;1.80;1.70;;;;;;;14.67;85.01;100429.06;1760581;80;20883;-88
2022/07/21 02:28:20;;;;;;;5.10;2.60;;;;;;;14.67;85.01;100429.06;1760670;81;20906;-88
2022/07/21 02:30:47;;;;;;;3.27;2.40;;;;;;;14.66;85.19;100430.01;1760659;81;20930;-87
2022/07/21 02:33:14;;;;;;;4.50;2.20;;;;;;;14.66;85.04;100433.14;1760861;80;20965;-86
2022/07/21 02:35:43;;;;;;;4.47;2.77;;;;;;;14.65;85.05;100434.08;1760645;81;21029;-88
2022/07/21 02:38:10;;;;;;;3.30;2.42;;;;;;;14.65;85.00;100427.48;1760642;81;20828;-86
2022/07/21 02:40:37;;;;;;;9.43;3.50;;;;;;;14.64;84.88;100425.33;1760629;81;21326;-87
2022/07/21 02:43:05;;;;;;;2.33;2.10;;;;;;;14.64;84.94;100425.33;1760579;80;20958;-87
2022/07/21 02:45:33;;;;;;;2.50;2.20;;;;;;;14.64;84.67;100424.01;1761107;81;20878;-88
2022/07/21 02:48:09;;;;;;;3.02;2.17;;;;;;;14.64;84.67;100424.01;1761432;81;21329;-88
2022/07/21 02:50:38;;;;;;;7.35;2.40;;;;;;;14.63;84.94;100431.59;1761356;81;20918;-88
2022/07/21 02:53:08;;;;;;;3.67;2.20;;;;;;;14.63;84.82;100436.00;1762350;79;21404;-88
2022/07/21 02:55:36;;;;;;;4.62;1.90;;;;;;;14.47;84.81;100415.25;1763153;79;20978;-87
2022/07/21 02:58:19;;;;;;;2.45;1.80;;;;;;;14.64;84.83;100437.20;1763200;79;20871;-88
2022/07/21 03:00:55;;;;;;;3.25;2.50;;;;;;;14.66;84.87;100442.38;1760669;81;21139;-89
2022/07/21 03:03:23;;;;;;;6.12;1.95;;;;;;;14.68;84.79;100449.20;1760710;81;20903;-88
2022/07/21 03:05:50;;;;;;;6.95;2.30;;;;;;;14.69;84.69;100443.44;1760845;81;20914;-88
2022/07/21 03:08:19;;;;;;;2.33;1.90;;;;;;;14.70;84.58;100445.12;1760891;81;20895;-87
2022/07/21 03:10:46;;;;;;;2.80;1.95;;;;;;;14.73;84.54;100445.36;1760973;80;20915;-89
2022/07/21 03:13:13;;;;;;;3.40;2.20;;;;;;;14.73;84.54;100445.36;1760873;81;21237;-89
2022/07/21 03:15:41;;;;;;;2.77;2.50;;;;;;;14.76;84.70;100450.37;1760770;81;21344;-88
2022/07/21 03:18:08;;;;;;;5.55;2.20;;;;;;;14.76;84.48;100443.78;1760873;81;20911;-88
2022/07/21 03:20:38;;;;;;;1.65;1.55;;;;;;;14.77;84.42;100441.03;1760857;81;20938;-88
2022/07/21 03:23:06;;;;;;;3.45;2.02;;;;;;;14.82;84.17;100440.66;1760922;80;20962;-87
2022/07/21 03:25:34;;;;;;;5.95;2.40;;;;;;;14.82;84.17;100440.66;1760797;81;21242;-88
2022/07/21 03:28:01;;;;;;;6.97;1.87;;;;;;;14.83;84.34;100432.63;1760971;80;20875;-87
2022/07/21 03:30:28;;;;;;;3.92;2.10;;;;;;;14.86;84.34;100438.13;1760968;80;20950;-87
2022/07/21 03:32:56;;;;;;;2.42;2.20;;;;;;;14.89;84.46;100441.34;1760675;80;20966;-87
2022/07/21 03:35:23;;;;;;;3.58;1.62;;;;;;;14.93;84.44;100444.58;1760890;80;20978;-87
2022/07/21 03:37:57;;;;;;;6.47;2.40;;;;;;;14.96;84.31;100436.40;1761281;81;21194;-87
2022/07/21 03:40:26;;;;;;;3.75;2.05;;;;;;;15.00;84.31;100438.32;1761259;81;20941;-88
2022/07/21 03:42:55;;;;;;;5.03;2.30;;;;;;;15.04;84.19;100439.75;1760836;81;20935;-87
2022/07/21 03:45:23;;;;;;;7.62;2.00;;;;;;;15.05;84.03;100441.42;1761117;81;21330;-87
2022/07/21 03:47:50;;;;;;;6.60;3.30;;;;;;;15.06;83.95;100434.70;1760986;81;20891;-87
2022/07/21 03:50:17;;;;;;;4.25;1.92;;;;;;;15.09;84.07;100434.44;1761414;80;21396;-89
2022/07/21 03:52:45;;;;;;;3.85;2.52;;;;;;;15.13;84.03;100447.75;1760892;81;20974;-88
2022/07/21 03:55:14;;;;;;;4.28;2.20;;;;;;;15.16;83.98;100444.02;1761939;81;20872;-85
2022/07/21 03:57:48;;;;;;;5.80;2.17;;;;;;;15.19;84.08;100442.95;1763522;79;21239;-87
2022/07/21 04:00:30;;;;;;;2.65;1.60;;;;;;;15.21;84.01;100445.82;1763557;81;20978;-85
2022/07/21 04:02:57;;;;;;;4.30;1.60;;;;;;;15.26;83.84;100443.63;1761216;81;21186;-88
2022/07/21 04:05:24;;;;;;;1.92;1.80;;;;;;;15.31;83.81;100440.60;1760870;80;21400;-88
2022/07/21 04:07:51;;;;;;;2.35;2.15;;;;;;;15.34;83.85;100439.88;1761104;80;20887;-88
2022/07/21 04:10:22;;;;;;;4.12;1.98;;;;;;;15.41;83.65;100442.02;1761070;81;20859;-86
2022/07/21 04:12:49;;;;;;;4.45;1.90;;;;;;;15.45;83.65;100438.13;1760946;81;20902;-89
2022/07/21 04:15:17;;;;;;;4.20;2.22;;;;;;;15.51;83.41;100438.45;1760866;80;21193;-89
2022/07/21 04:17:45;;;;;;;5.53;2.10;;;;;;;15.55;83.10;100433.76;1761106;81;20886;-88
2022/07/21 04:20:13;;;;;;;4.40;1.82;;;;;;;15.65;83.06;100439.09;1761015;80;20910;-87
2022/07/21 04:22:43;;;;;;;4.67;1.85;;;;;;;15.72;82.78;100431.06;1761125;81;20891;-87
2022/07/21 04:25:13;;;;;;;1.98;1.87;;;;;;;15.87;82.63;100436.34;1761445;81;20871;-87
2022/07/21 04:27:40;;;;;;;4.37;1.62;;;;;;;16.13;82.70;100434.11;1761243;81;21228;-89
2022/07/21 04:30:10;;;;;;;3.75;2.08;;;;;;;16.56;81.77;100429.05;1760723;80;20966;-88
2022/07/21 04:32:37;;;;;;;7.00;2.15;;;;;;;17.13;80.68;100425.81;1761396;81;20974;-88
2022/07/21 04:35:06;;;;;;;4.53;1.57;;;;;;;17.79;78.26;100427.20;1760939;81;20962;-89
2022/07/21 04:37:33;;;;;;;3.77;1.62;;;;;;;18.46;75.42;100431.09;1762797;81;20867;-89
2022/07/21 04:40:01;;;;;;;1.50;1.30;;;;;;;19.10;73.18;100426.66;1763696;79;21110;-88
2022/07/21 04:42:28;;;;;;;1.50;1.07;;;;;;;19.73;70.49;100434.98;1762670;79;20840;-90
2022/07/21 04:44:55;;;;;;;2.17;1.20;;;;;;;20.28;67.73;100432.47;1761325;81;21468;-89
2022/07/21 04:47:21;;;;;;;4.53;1.25;;;;;;;20.81;66.22;100430.02;1760888;81;21401;-88
2022/07/21 04:49:49;;;;;;;4.00;1.95;;;;;;;21.33;64.08;100436.89;1760713;81;20918;-89
2022/07/21 04:52:15;;;;;;;1.30;0.72;;;;;;;21.83;62.38;100434.55;1760627;80;21239;-90
2022/07/21 04:54:42;;;;;;;2.27;1.35;;;;;;;22.37;60.45;100434.39;1760677;81;20906;-89
2022/07/21 04:57:09;;;;;;;1.98;1.10;;;;;;;22.85;59.04;100433.30;1777924;80;20923;-89
2022/07/21 04:59:36;;;;;;;6.67;1.32;;;;;;;23.31;57.59;100441.89;1790241;79;21373;-90
2022/07/21 05:02:04;;;;;;;2.37;1.10;;;;;;;23.69;56.08;100443.23;1790031;79;20930;-89
2022/07/21 05:04:31;;;;;;;2.83;1.32;;;;;;;24.00;54.52;100443.93;1789810;79;21285;-88
2022/07/21 05:06:58;;;;;;;4.55;1.40;;;;;;;24.22;53.79;100437.84;1790286;80;20990;-88
2022/07/21 05:09:25;;;;;;;4.75;1.07;;;;;;;24.48;52.60;100440.05;1790179;79;20974;-89
2022/07/21 05:11:52;;;;;;;1.70;1.10;;;;;;;24.73;51.97;100439.22;1789843;79;20852;-88
2022/07/21 05:14:19;;;;;;;5.35;1.20;;;;;;;24.98;50.84;100434.32;1790086;80;20884;-90
2022/07/21 05:16:46;;;;;;;4.97;1.20;;;;;;;25.19;50.65;100434.37;1790144;80;21162;-89
2022/07/21 05:19:13;;;;;;;2.87;0.90;;;;;;;25.42;50.05;100436.00;1790413;79;21648;-87
2022/07/21 05:21:40;;;;;;;7.33;1.32;;;;;;;25.64;48.84;100424.71;1791855;79;20895;-87
2022/07/21 05:24:08;;;;;;;2.12;0.88;;;;;;;25.81;47.88;100426.08;1790911;79;21378;-90
2022/07/21 05:26:35;;;;;;;4.20;1.10;;;;;;;26.01;47.54;100428.06;1789788;80;20933;-90
2022/07/21 05:29:02;;;;;;;7.55;1.15;;;;;;;26.22;47.06;100423.13;1790079;80;21246;-90
2022/07/21 05:31:31;;;;;;;3.87;1.17;;;;;;;26.50;46.49;100417.63;1790017;80;20884;-89
2022/07/21 05:33:58;;;;;;;2.17;0.88;;;;;;;26.78;46.28;100415.38;1791033;80;20872;-87
2022/07/21 05:36:25;;;;;;;3.00;1.17;;;;;;;27.00;45.45;100407.97;1790446;78;20892;-90
2022/07/21 05:38:52;;;;;;;8.90;1.42;;;;;;;27.17;45.11;100408.38;1789961;79;20875;-89
2022/07/21 05:41:21;;;;;;;4.55;0.95;;;;;;;27.44;44.28;100417.34;1789973;80;21213;-89
2022/07/21 05:43:48;;;;;;;3.47;1.57;;;;;;;27.65;43.59;100411.70;1789808;79;20872;-90
2022/07/21 05:46:15;;;;;;;1.85;0.80;;;;;;;27.79;43.32;100413.03;1789826;78;21452;-90
2022/07/21 05:48:43;;;;;;;2.80;0.80;;;;;;;27.96;42.48;100412.11;1789737;79;20966;-90
2022/07/21 05:51:10;;;;;;;3.52;1.37;;;;;;;28.17;42.38;100410.99;1789969;79;20892;-90
2022/07/21 05:53:37;;;;;;;4.35;0.72;;;;;;;28.38;41.83;100408.01;1789939;80;21146;-89
2022/07/21 05:56:04;;;;;;;4.67;1.02;;;;;;;28.64;41.52;100405.73;1789717;80;21006;-89
2022/07/21 05:58:32;;;;;;;3.12;0.80;;;;;;;28.88;40.88;100394.69;1759719;80;20843;-90
2022/07/21 06:01:08;;;;;;;6.47;0.93;;;;;;;29.10;40.46;100397.89;1758382;80;20881;-89
2022/07/21 06:03:37;;;;;;;2.30;0.90;;;;;;;29.26;40.05;100395.16;1790589;80;21338;-90
2022/07/21 06:06:04;;;;;;;1.10;0.98;;;;;;;29.43;39.21;100397.29;1790483;80;21143;-90
2022/07/21 06:08:33;;;;;;;4.80;0.70;;;;;;;29.59;39.25;100397.23;1789962;80;20951;-89
2022/07/21 06:11:02;;;;;;;4.67;0.65;;;;;;;29.76;38.98;100398.34;1790153;80;20856;-89
2022/07/21 06:13:31;;;;;;;0.75;0.75;;;;;;;29.93;38.27;100401.30;1790011;80;21310;-88
2022/07/21 06:15:58;;;;;;;2.85;0.85;;;;;;;30.12;37.72;100402.92;1790441;79;20852;-88
2022/07/21 06:18:26;;;;;;;2.37;0.60;;;;;;;30.25;37.62;100405.17;1791131;79;21251;-87
2022/07/21 06:20:53;;;;;;;1.92;0.60;;;;;;;30.36;37.41;100399.84;1790565;79;20958;-90
2022/07/21 06:23:21;;;;;;;1.92;0.90;;;;;;;30.48;37.13;100400.42;1791428;79;20911;-89
2022/07/21 06:25:50;;;;;;;1.32;0.50;;;;;;;30.49;36.66;100400.20;1790955;80;20864;-90
2022/07/21 06:28:17;;;;;;;3.85;0.80;;;;;;;30.63;36.48;100393.25;1760158;80;20942;-89
2022/07/21 06:30:43;;;;;;;1.95;0.20;;;;;;;30.75;36.08;100394.95;1790103;80;21231;-88
2022/07/21 06:33:11;;;;;;;3.70;0.68;;;;;;;30.93;36.03;100392.73;1790521;79;20852;-89
2022/07/21 06:35:40;;;;;;;4.03;0.90;;;;;;;31.07;35.91;100378.44;1790665;80;20963;-89
2022/07/21 06:38:08;;;;;;;4.60;0.95;;;;;;;31.29;35.87;100389.53;1790936;79;20998;-90
2022/07/21 06:40:36;;;;;;;0.75;0.50;;;;;;;31.57;35.42;100385.31;1790844;79;20986;-89
2022/07/21 06:43:03;;;;;;;2.12;0.55;;;;;;;31.76;34.21;100381.41;1790787;79;21916;-89
2022/07/21 06:45:30;;;;;;;0.55;0.50;;;;;;;31.79;34.40;100382.81;1790667;80;20836;-90
2022/07/21 06:48:02;;;;;;;3.70;0.75;;;;;;;31.91;34.20;100383.63;1790784;79;20939;-90
2022/07/21 06:50:29;;;;;;;1.02;0.40;;;;;;;32.02;33.46;100375.21;1790404;80;20919;-91
2022/07/21 06:52:56;;;;;;;3.70;0.60;;;;;;;32.01;32.78;100380.33;1790505;80;20948;-91
2022/07/21 06:55:23;;;;;;;5.62;0.62;;;;;;;31.95;33.36;100374.47;1790866;80;21228;-90
2022/07/21 06:57:50;;;;;;;5.58;1.22;;;;;;;31.95;33.27;100366.33;1790493;80;20959;-92
2022/07/21 07:00:18;;;;;;;3.87;0.50;;;;;;;32.05;33.00;100369.83;1790707;79;20904;-91
2022/07/21 07:02:46;;;;;;;1.80;0.28;;;;;;;32.09;32.54;100370.46;1790012;80;20975;-90
2022/07/21 07:05:13;;;;;;;6.78;0.50;;;;;;;32.23;32.63;100373.72;1790227;79;20911;-91
2022/07/21 07:07:40;;;;;;;4.25;0.75;;;;;;;32.41;31.84;100372.70;1790545;80;21236;-91
2022/07/21 07:12:02;;;;;;;5.30;0.50;;;;;;;32.53;31.46;100368.63;1856415;76;22555;-90
2022/07/21 07:14:23;;;;;;;2.25;0.50;;;;;;;32.41;31.63;100367.27;1822885;78;20954;-90
2022/07/21 07:16:52;;;;;;;3.10;0.62;;;;;;;32.44;31.81;100374.95;1823931;78;20896;-91
2022/07/21 07:19:20;;;;;;;1.35;0.50;;;;;;;32.57;31.21;100368.40;1823283;78;21326;-91
2022/07/21 07:21:47;;;;;;;0.50;0.40;;;;;;;32.68;30.99;100360.72;1823303;78;20872;-91
2022/07/21 07:24:15;;;;;;;2.02;0.45;;;;;;;32.71;30.76;100360.25;1823533;78;20998;-90
2022/07/21 07:26:42;;;;;;;2.05;0.35;;;;;;;32.79;30.98;100363.09;1823647;78;21428;-91
2022/07/21 07:29:09;;;;;;;2.42;0.30;;;;;;;32.94;30.81;100359.81;1818656;78;21083;-92
2022/07/21 07:31:36;;;;;;;2.20;0.23;;;;;;;33.08;30.54;100349.45;1823776;78;20963;-92
2022/07/21 07:34:04;;;;;;;3.42;0.40;;;;;;;33.16;30.55;100349.86;1823740;78;20994;-91
2022/07/21 07:36:32;;;;;;;5.15;0.33;;;;;;;33.36;30.08;100356.14;1823792;78;20883;-91
2022/07/21 07:38:59;;;;;;;2.72;0.20;;;;;;;33.49;29.83;100352.25;1823949;78;20951;-91
2022/07/21 07:41:28;;;;;;;3.20;0.30;;;;;;;33.48;29.56;100349.23;1823445;78;21243;-90
2022/07/21 07:43:57;;;;;;;0.90;0.40;;;;;;;33.27;29.19;100346.77;1823553;78;21009;-90
2022/07/21 07:46:24;;;;;;;0.68;0.40;;;;;;;33.14;29.06;100345.76;1823556;78;20884;-90
2022/07/21 07:48:51;;;;;;;1.60;0.25;;;;;;;33.16;29.27;100339.54;1823242;78;20943;-92
2022/07/21 07:51:19;;;;;;;0.30;0.20;;;;;;;33.18;29.55;100342.83;1823779;78;20895;-90
2022/07/21 07:53:46;;;;;;;4.20;0.53;;;;;;;33.01;28.72;100337.37;1823820;78;21322;-90
2022/07/21 07:56:13;;;;;;;5.25;0.60;;;;;;;32.87;29.29;100337.42;1823446;78;20923;-90
2022/07/21 07:58:41;;;;;;;1.65;0.30;;;;;;;32.85;29.29;100344.45;1823243;78;20994;-92
2022/07/21 08:01:09;;;;;;;1.12;0.20;;;;;;;32.88;28.41;100339.05;1823670;78;20884;-91
2022/07/21 08:03:37;;;;;;;0.25;0.20;;;;;;;33.04;28.41;100335.53;1823748;78;20864;-91
2022/07/21 08:06:06;;;;;;;0.47;0.20;;;;;;;33.21;28.16;100342.32;1824278;78;21397;-90
2022/07/21 08:08:33;;;;;;;2.15;0.80;;;;;;;33.40;28.40;100339.63;1824505;78;20963;-89
2022/07/21 08:11:01;;;;;;;0.98;0.35;;;;;;;33.29;27.94;100348.70;1826161;78;20907;-89
2022/07/21 08:13:28;;;;;;;0.88;0.20;;;;;;;33.17;27.72;100346.60;1827301;78;20844;-93
2022/07/21 08:15:55;;;;;;;0.82;0.20;;;;;;;33.01;27.77;100342.26;1827385;78;20872;-92
2022/07/21 08:18:23;;;;;;;3.37;0.60;;;;;;;33.02;27.79;100344.46;1827290;78;21742;-91
2022/07/21 08:20:50;;;;;;;2.35;0.40;;;;;;;33.09;28.05;100334.81;1828508;78;21092;-91
2022/07/21 08:23:17;;;;;;;0.53;0.20;;;;;;;33.23;28.20;100334.75;1828065;78;20859;-92
2022/07/21 08:25:44;;;;;;;1.27;0.40;;;;;;;33.05;27.55;100335.80;1827137;78;20919;-92
2022/07/21 08:28:11;;;;;;;2.55;0.20;;;;;;;33.01;27.76;100333.30;1827375;78;20966;-90
2022/07/21 08:30:38;;;;;;;3.02;0.40;;;;;;;32.94;27.66;100323.13;1827228;78;21202;-92
2022/07/21 08:33:05;;;;;;;2.80;0.62;;;;;;;33.04;27.75;100321.95;1827142;78;20864;-90
2022/07/21 08:35:34;;;;;;;3.75;0.60;;;;;;;33.21;27.69;100320.58;1826965;78;20946;-93
2022/07/21 08:38:05;;;;;;;1.55;1.45;;;;;;;33.26;27.47;100318.47;1826446;78;20887;-93
2022/07/21 08:40:35;;;;;;;5.47;1.22;;;;;;;33.15;27.35;100310.19;1826944;78;21005;-91
2022/07/21 08:43:02;;;;;;;13.15;5.15;;;;;;;33.13;27.51;100319.13;1826719;78;21761;-92
2022/07/21 08:45:30;;;;;;;4.30;0.82;;;;;;;33.09;27.47;100313.89;1826729;78;20919;-93
2022/07/21 08:47:58;;;;;;;6.20;0.40;;;;;;;33.07;28.04;100315.22;1826432;78;20867;-93
2022/07/21 08:50:29;;;;;;;1.57;0.25;;;;;;;33.08;28.30;100306.80;1826673;78;20904;-92
2022/07/21 08:52:56;;;;;;;3.62;0.40;;;;;;;33.09;28.30;100308.45;1826734;78;20875;-92
2022/07/21 08:55:25;;;;;;;1.37;0.23;;;;;;;33.12;28.04;100303.05;1826594;78;21472;-92
2022/07/21 08:57:52;;;;;;;4.10;0.50;;;;;;;33.27;28.54;100316.05;1826764;78;20883;-92
2022/07/21 09:00:19;;;;;;;1.82;0.50;;;;;;;33.09;27.93;100313.08;1826487;78;20880;-91
2022/07/21 09:02:46;;;;;;;1.35;0.47;;;;;;;32.73;27.49;100317.92;1826423;78;20888;-92
2022/07/21 09:05:13;;;;;;;0.57;0.20;;;;;;;32.28;27.80;100324.14;1826705;78;20943;-90
2022/07/21 09:07:55;;;;;;;1.90;0.40;;;;;;;31.83;28.71;100322.16;1826790;78;21225;-89
2022/07/21 09:10:29;;;;;;;7.58;0.40;;;;;;;31.34;29.38;100324.61;1826522;78;21670;-91
2022/07/21 09:12:59;;;;;;;5.55;0.40;;;;;;;30.82;30.32;100317.67;1826486;78;20867;-92
2022/07/21 09:15:28;;;;;;;1.00;0.50;;;;;;;30.29;30.52;100326.06;1826321;78;20894;-90
2022/07/21 09:18:15;;;;;;;1.62;0.42;;;;;;;29.95;31.15;100319.42;1826298;78;21428;-90
2022/07/21 09:20:49;;;;;;;1.67;0.30;;;;;;;29.80;31.46;100314.92;1826207;78;23249;-90
2022/07/21 09:23:18;;;;;;;1.60;0.20;;;;;;;29.59;32.71;100314.28;1826182;78;20883;-92
2022/07/21 09:25:50;;;;;;;5.10;0.33;;;;;;;29.32;32.12;100313.73;1825826;78;20923;-91
2022/07/21 09:28:27;;;;;;;3.60;0.30;;;;;;;28.98;32.81;100320.48;1825871;78;20880;-91
2022/07/21 09:31:06;;;;;;;2.00;0.50;;;;;;;28.71;33.75;100320.69;1825945;78;21345;-89
2022/07/21 09:33:46;;;;;;;6.62;0.40;;;;;;;28.54;33.82;100319.02;1825661;78;21132;-89
2022/07/21 09:36:18;;;;;;;2.08;0.72;;;;;;;28.34;33.51;100318.30;1825537;78;20993;-91
2022/07/21 09:38:51;;;;;;;0.88;0.30;;;;;;;28.19;34.61;100319.92;1825613;78;20891;-91
2022/07/21 09:41:23;;;;;;;4.75;0.68;;;;;;;28.05;34.92;100317.29;1825655;78;20935;-91
2022/07/21 09:43:54;;;;;;;1.02;0.30;;;;;;;27.87;34.70;100308.56;1827088;78;20954;-89
2022/07/21 09:46:25;;;;;;;3.52;0.62;;;;;;;27.78;35.15;100308.98;1827193;78;21568;-87
2022/07/21 09:48:53;;;;;;;10.38;4.62;;;;;;;27.75;35.33;100302.16;1827191;78;21452;-88
2022/07/21 09:51:29;;;;;;;1.10;0.50;;;;;;;27.82;35.82;100307.53;1827039;78;20871;-90
2022/07/21 09:54:03;;;;;;;4.30;0.40;;;;;;;27.94;35.50;100296.92;1826373;78;20931;-90
2022/07/21 09:56:34;;;;;;;3.10;0.40;;;;;;;28.14;36.32;100296.83;1826682;78;20880;-90
2022/07/21 09:59:01;;;;;;;2.72;0.57;;;;;;;28.21;36.42;100282.25;1825732;78;21201;-90
2022/07/21 10:01:28;;;;;;;2.92;0.47;;;;;;;28.24;36.34;100289.94;1826309;78;20872;-90
2022/07/21 10:03:56;;;;;;;2.55;0.50;;;;;;;28.24;35.63;100293.98;1826756;78;20903;-88
2022/07/21 10:06:36;;;;;;;2.20;0.30;;;;;;;28.21;36.31;100282.78;1826395;78;20939;-91
2022/07/21 10:09:05;;;;;;;1.90;0.40;;;;;;;28.18;35.94;100288.09;1826019;78;20939;-87
2022/07/21 10:11:33;;;;;;;4.28;0.50;;;;;;;28.14;35.99;100284.70;1826221;78;21421;-86
2022/07/21 10:14:02;;;;;;;5.05;0.37;;;;;;;28.10;36.19;100296.42;1824815;78;20888;-89
2022/07/21 10:16:29;;;;;;;2.65;0.30;;;;;;;27.98;36.56;100287.38;1820289;77;20852;-88
2022/07/21 10:19:31;;;;;;;3.65;1.10;;;;;;;27.86;36.44;100289.39;1824944;78;20954;-87
2022/07/21 10:22:22;;;;;;;4.53;0.88;;;;;;;27.84;36.77;100281.19;1778163;79;20931;-89
2022/07/21 10:24:49;;;;;;;2.17;0.55;;;;;;;27.90;36.67;100280.34;1754010;79;21249;-87
2022/07/21 10:27:16;;;;;;;4.05;0.55;;;;;;;28.00;36.81;100279.91;1717472;81;20968;-88
2022/07/21 10:29:55;;;;;;;1.62;0.50;;;;;;;27.93;36.46;100285.33;1717373;82;20951;-88
2022/07/21 10:32:30;;;;;;;2.42;0.50;;;;;;;27.72;36.54;100278.31;1687781;83;20992;-89
2022/07/21 10:34:58;;;;;;;1.27;0.23;;;;;;;27.62;37.66;100276.08;1717311;83;20876;-90
2022/07/21 10:37:44;;;;;;;4.12;0.33;;;;;;;27.70;37.16;100269.62;1715757;83;21092;-90
2022/07/21 10:40:26;;;;;;;2.72;0.30;;;;;;;27.79;37.20;100269.71;1685261;85;21020;-89
2022/07/21 10:43:07;;;;;;;1.67;0.17;;;;;;;27.89;37.60;100271.97;1715422;83;21536;-89
2022/07/21 10:45:39;;;;;;;1.55;0.10;;;;;;;28.02;37.27;100272.43;1716090;82;20932;-90
2022/07/21 10:48:10;;;;;;;3.02;0.40;;;;;;;28.27;36.81;100261.17;1684551;85;20974;-91
2022/07/21 10:50:39;;;;;;;2.30;0.30;;;;;;;28.63;36.41;100257.00;1715281;82;21236;-91
2022/07/21 10:53:18;;;;;;;4.75;0.50;;;;;;;28.78;35.87;100253.98;1715717;83;20912;-91
2022/07/21 10:55:51;;;;;;;2.20;0.50;;;;;;;28.85;35.04;100257.44;1711427;82;20972;-90
2022/07/21 10:58:37;;;;;;;2.42;0.50;;;;;;;28.96;35.30;100261.82;1822500;78;20911;-89
2022/07/21 11:01:24;;;;;;;0.62;0.20;;;;;;;29.08;36.10;100258.67;1822442;78;20974;-88
2022/07/21 11:04:16;;;;;;;1.40;0.80;;;;;;;29.17;35.61;100261.45;1822763;78;20946;-90
2022/07/21 11:06:42;;;;;;;4.00;0.50;;;;;;;29.22;35.25;100258.89;1822118;78;21354;-90
2022/07/21 11:09:16;;;;;;;1.15;0.30;;;;;;;29.28;35.16;100265.25;1822112;78;21291;-87
2022/07/21 11:12:03;;;;;;;2.25;0.93;;;;;;;29.35;34.74;100260.63;1823349;78;20943;-89
2022/07/21 11:14:39;;;;;;;2.90;0.78;;;;;;;29.32;34.53;100259.18;1825292;78;20867;-90
2022/07/21 11:17:12;;;;;;;1.92;0.50;;;;;;;29.24;34.88;100259.49;1825761;78;21137;-90
2022/07/21 11:19:52;;;;;;;1.67;1.27;;;;;;;29.02;35.03;100265.81;1825746;78;21346;-90
2022/07/21 11:22:25;;;;;;;4.92;2.70;;;;;;;28.71;35.76;100268.06;1825630;78;20840;-89
2022/07/21 11:25:00;;;;;;;5.42;1.00;;;;;;;28.39;36.02;100257.77;1825666;78;20931;-91
2022/07/21 11:27:29;;;;;;;1.50;0.30;;;;;;;28.11;36.60;100261.17;1825576;78;21290;-90
2022/07/21 11:29:59;;;;;;;1.98;0.30;;;;;;;27.90;37.62;100265.52;1825919;78;21117;-91
2022/07/21 11:32:26;;;;;;;4.10;0.80;;;;;;;27.73;37.88;100265.17;1825583;78;20927;-90
2022/07/21 11:34:58;;;;;;;3.22;0.40;;;;;;;27.55;38.06;100267.73;1826026;78;20879;-90
2022/07/21 11:37:38;;;;;;;2.15;0.40;;;;;;;27.39;38.07;100268.50;1825474;78;20927;-89